sensor_id;sensor_type;location;lat;lon;timestamp;temperature;humidity
68801;SHT31;55784;50.734;7.086;2023-01-26T00:00:57;0.33;89.83
68801;SHT31;55784;50.734;7.086;2023-01-26T00:03:24;0.33;89.74
68801;SHT31;55784;50.734;7.086;2023-01-26T00:05:49;0.36;89.22
68801;SHT31;55784;50.734;7.086;2023-01-26T00:08:15;0.48;89.19
68801;SHT31;55784;50.734;7.086;2023-01-26T00:10:41;0.59;88.87
68801;SHT31;55784;50.734;7.086;2023-01-26T00:13:15;0.39;89.31
68801;SHT31;55784;50.734;7.086;2023-01-26T00:15:41;0.38;89.86
68801;SHT31;55784;50.734;7.086;2023-01-26T00:18:08;0.23;90.36
68801;SHT31;55784;50.734;7.086;2023-01-26T00:20:33;0.22;90.74
68801;SHT31;55784;50.734;7.086;2023-01-26T00:22:58;0.16;91.00
68801;SHT31;55784;50.734;7.086;2023-01-26T00:25:23;0.06;91.31
68801;SHT31;55784;50.734;7.086;2023-01-26T00:27:49;0.15;90.92
68801;SHT31;55784;50.734;7.086;2023-01-26T00:30:15;0.01;91.20
68801;SHT31;55784;50.734;7.086;2023-01-26T00:32:40;-0.01;91.43
68801;SHT31;55784;50.734;7.086;2023-01-26T00:35:06;-0.01;91.08
68801;SHT31;55784;50.734;7.086;2023-01-26T00:37:31;-0.09;91.52
68801;SHT31;55784;50.734;7.086;2023-01-26T00:39:57;-0.09;91.29
68801;SHT31;55784;50.734;7.086;2023-01-26T00:42:23;-0.21;91.84
68801;SHT31;55784;50.734;7.086;2023-01-26T00:44:49;-0.21;92.14
68801;SHT31;55784;50.734;7.086;2023-01-26T00:47:15;-0.16;91.92
68801;SHT31;55784;50.734;7.086;2023-01-26T00:49:40;-0.22;91.72
68801;SHT31;55784;50.734;7.086;2023-01-26T00:52:06;-0.22;91.69
68801;SHT31;55784;50.734;7.086;2023-01-26T00:54:32;-0.19;91.89
68801;SHT31;55784;50.734;7.086;2023-01-26T00:56:57;-0.12;91.62
68801;SHT31;55784;50.734;7.086;2023-01-26T00:59:23;-0.16;91.21
68801;SHT31;55784;50.734;7.086;2023-01-26T01:01:48;-0.16;90.99
68801;SHT31;55784;50.734;7.086;2023-01-26T01:04:15;-0.09;91.02
68801;SHT31;55784;50.734;7.086;2023-01-26T01:06:41;-0.18;90.96
68801;SHT31;55784;50.734;7.086;2023-01-26T01:09:07;-0.19;91.11
68801;SHT31;55784;50.734;7.086;2023-01-26T01:11:32;-0.12;90.69
68801;SHT31;55784;50.734;7.086;2023-01-26T01:13:57;-0.16;90.62
68801;SHT31;55784;50.734;7.086;2023-01-26T01:16:23;-0.18;90.03
68801;SHT31;55784;50.734;7.086;2023-01-26T01:18:52;-0.03;89.69
68801;SHT31;55784;50.734;7.086;2023-01-26T01:21:18;-0.06;90.01
68801;SHT31;55784;50.734;7.086;2023-01-26T01:23:44;-0.11;90.67
68801;SHT31;55784;50.734;7.086;2023-01-26T01:26:10;-0.19;90.74
68801;SHT31;55784;50.734;7.086;2023-01-26T01:28:36;-0.02;90.52
68801;SHT31;55784;50.734;7.086;2023-01-26T01:31:05;0.01;89.89
68801;SHT31;55784;50.734;7.086;2023-01-26T01:33:30;-0.03;89.87
68801;SHT31;55784;50.734;7.086;2023-01-26T01:36:00;0.05;89.90
68801;SHT31;55784;50.734;7.086;2023-01-26T01:38:26;0.08;89.77
68801;SHT31;55784;50.734;7.086;2023-01-26T01:40:52;-0.01;89.77
68801;SHT31;55784;50.734;7.086;2023-01-26T01:43:18;-0.15;90.16
68801;SHT31;55784;50.734;7.086;2023-01-26T01:45:46;-0.18;89.98
68801;SHT31;55784;50.734;7.086;2023-01-26T01:48:36;-0.18;90.08
68801;SHT31;55784;50.734;7.086;2023-01-26T01:51:05;-0.30;90.75
68801;SHT31;55784;50.734;7.086;2023-01-26T01:53:35;-0.23;90.69
68801;SHT31;55784;50.734;7.086;2023-01-26T01:56:04;-0.29;90.61
68801;SHT31;55784;50.734;7.086;2023-01-26T01:58:33;-0.21;90.71
68801;SHT31;55784;50.734;7.086;2023-01-26T02:00:59;-0.26;90.58
68801;SHT31;55784;50.734;7.086;2023-01-26T02:03:25;-0.26;90.94
68801;SHT31;55784;50.734;7.086;2023-01-26T02:08:53;-0.23;90.49
68801;SHT31;55784;50.734;7.086;2023-01-26T02:11:34;-0.22;90.17
68801;SHT31;55784;50.734;7.086;2023-01-26T02:14:04;-0.32;90.51
68801;SHT31;55784;50.734;7.086;2023-01-26T02:16:30;-0.33;90.63
68801;SHT31;55784;50.734;7.086;2023-01-26T02:18:55;-0.33;90.60
68801;SHT31;55784;50.734;7.086;2023-01-26T02:21:21;-0.39;90.88
68801;SHT31;55784;50.734;7.086;2023-01-26T02:24:00;-0.37;90.80
68801;SHT31;55784;50.734;7.086;2023-01-26T02:26:34;-0.22;90.54
68801;SHT31;55784;50.734;7.086;2023-01-26T02:29:02;-0.29;89.72
68801;SHT31;55784;50.734;7.086;2023-01-26T02:31:29;-0.28;89.66
68801;SHT31;55784;50.734;7.086;2023-01-26T02:33:55;-0.22;89.14
68801;SHT31;55784;50.734;7.086;2023-01-26T02:36:24;-0.23;89.77
68801;SHT31;55784;50.734;7.086;2023-01-26T02:38:51;-0.42;90.26
68801;SHT31;55784;50.734;7.086;2023-01-26T02:41:20;-0.39;90.23
68801;SHT31;55784;50.734;7.086;2023-01-26T02:44:07;-0.32;89.95
68801;SHT31;55784;50.734;7.086;2023-01-26T02:46:34;-0.39;90.25
68801;SHT31;55784;50.734;7.086;2023-01-26T02:48:59;-0.46;90.02
68801;SHT31;55784;50.734;7.086;2023-01-26T02:51:43;-0.52;90.00
68801;SHT31;55784;50.734;7.086;2023-01-26T02:54:08;-0.49;90.50
68801;SHT31;55784;50.734;7.086;2023-01-26T02:56:33;-0.48;90.77
68801;SHT31;55784;50.734;7.086;2023-01-26T02:59:05;-0.44;90.74
68801;SHT31;55784;50.734;7.086;2023-01-26T03:01:30;-0.40;90.18
68801;SHT31;55784;50.734;7.086;2023-01-26T03:03:55;-0.48;90.31
68801;SHT31;55784;50.734;7.086;2023-01-26T03:06:20;-0.37;90.45
68801;SHT31;55784;50.734;7.086;2023-01-26T03:08:46;-0.37;89.66
68801;SHT31;55784;50.734;7.086;2023-01-26T03:11:11;-0.43;89.59
68801;SHT31;55784;50.734;7.086;2023-01-26T03:13:36;-0.40;89.57
68801;SHT31;55784;50.734;7.086;2023-01-26T03:16:06;-0.37;89.66
68801;SHT31;55784;50.734;7.086;2023-01-26T03:18:35;-0.36;89.47
68801;SHT31;55784;50.734;7.086;2023-01-26T03:21:22;-0.15;89.51
68801;SHT31;55784;50.734;7.086;2023-01-26T03:24:10;-0.26;89.36
68801;SHT31;55784;50.734;7.086;2023-01-26T03:26:54;-0.23;89.33
68801;SHT31;55784;50.734;7.086;2023-01-26T03:29:38;-0.37;89.47
68801;SHT31;55784;50.734;7.086;2023-01-26T03:32:03;-0.19;89.17
68801;SHT31;55784;50.734;7.086;2023-01-26T03:34:29;-0.26;88.74
68801;SHT31;55784;50.734;7.086;2023-01-26T03:36:54;-0.44;89.28
68801;SHT31;55784;50.734;7.086;2023-01-26T03:39:20;-0.33;89.24
68801;SHT31;55784;50.734;7.086;2023-01-26T03:42:04;-0.21;88.84
68801;SHT31;55784;50.734;7.086;2023-01-26T03:44:48;-0.05;88.68
68801;SHT31;55784;50.734;7.086;2023-01-26T03:47:34;0.15;88.01
68801;SHT31;55784;50.734;7.086;2023-01-26T03:50:19;0.33;87.65
68801;SHT31;55784;50.734;7.086;2023-01-26T03:53:12;0.48;87.30
68801;SHT31;55784;50.734;7.086;2023-01-26T03:55:56;0.52;86.60
68801;SHT31;55784;50.734;7.086;2023-01-26T03:58:40;0.50;86.63
68801;SHT31;55784;50.734;7.086;2023-01-26T04:01:05;0.60;86.57
68801;SHT31;55784;50.734;7.086;2023-01-26T04:03:31;0.62;86.13
68801;SHT31;55784;50.734;7.086;2023-01-26T04:06:14;0.49;86.06
68801;SHT31;55784;50.734;7.086;2023-01-26T04:08:58;0.59;86.14
68801;SHT31;55784;50.734;7.086;2023-01-26T04:11:23;0.57;85.85
68801;SHT31;55784;50.734;7.086;2023-01-26T04:13:49;0.59;85.94
68801;SHT31;55784;50.734;7.086;2023-01-26T04:16:32;0.59;86.05
68801;SHT31;55784;50.734;7.086;2023-01-26T04:19:16;0.56;86.11
68801;SHT31;55784;50.734;7.086;2023-01-26T04:22:00;0.50;86.22
68801;SHT31;55784;50.734;7.086;2023-01-26T04:24:26;0.49;86.28
68801;SHT31;55784;50.734;7.086;2023-01-26T04:26:51;0.32;86.64
68801;SHT31;55784;50.734;7.086;2023-01-26T04:29:16;0.18;87.19
68801;SHT31;55784;50.734;7.086;2023-01-26T04:31:42;0.13;87.86
68801;SHT31;55784;50.734;7.086;2023-01-26T04:34:13;0.13;88.08
68801;SHT31;55784;50.734;7.086;2023-01-26T04:36:39;0.18;88.24
68801;SHT31;55784;50.734;7.086;2023-01-26T04:39:04;0.15;88.17
68801;SHT31;55784;50.734;7.086;2023-01-26T04:41:30;0.18;88.17
68801;SHT31;55784;50.734;7.086;2023-01-26T04:43:57;0.23;88.17
68801;SHT31;55784;50.734;7.086;2023-01-26T04:46:22;0.18;88.50
68801;SHT31;55784;50.734;7.086;2023-01-26T04:48:48;0.29;88.34
68801;SHT31;55784;50.734;7.086;2023-01-26T04:51:15;0.23;88.59
68801;SHT31;55784;50.734;7.086;2023-01-26T04:53:42;-0.05;89.16
68801;SHT31;55784;50.734;7.086;2023-01-26T04:56:14;-0.02;89.52
68801;SHT31;55784;50.734;7.086;2023-01-26T04:58:41;-0.08;89.83
68801;SHT31;55784;50.734;7.086;2023-01-26T05:01:07;0.05;89.81
68801;SHT31;55784;50.734;7.086;2023-01-26T05:03:32;-0.13;89.88
68801;SHT31;55784;50.734;7.086;2023-01-26T05:05:58;-0.33;90.44
68801;SHT31;55784;50.734;7.086;2023-01-26T05:08:23;-0.21;90.92
68801;SHT31;55784;50.734;7.086;2023-01-26T05:10:49;-0.02;90.71
68801;SHT31;55784;50.734;7.086;2023-01-26T05:13:15;0.05;90.61
68801;SHT31;55784;50.734;7.086;2023-01-26T05:15:41;-0.03;90.39
68801;SHT31;55784;50.734;7.086;2023-01-26T05:18:06;-0.11;90.49
68801;SHT31;55784;50.734;7.086;2023-01-26T05:20:32;-0.21;90.48
68801;SHT31;55784;50.734;7.086;2023-01-26T05:22:58;-0.16;90.98
68801;SHT31;55784;50.734;7.086;2023-01-26T05:25:24;-0.28;91.24
68801;SHT31;55784;50.734;7.086;2023-01-26T05:27:49;-0.18;91.14
68801;SHT31;55784;50.734;7.086;2023-01-26T05:30:16;-0.16;90.89
68801;SHT31;55784;50.734;7.086;2023-01-26T05:32:42;-0.28;91.33
68801;SHT31;55784;50.734;7.086;2023-01-26T05:35:08;-0.18;91.14
68801;SHT31;55784;50.734;7.086;2023-01-26T05:37:33;-0.19;91.59
68801;SHT31;55784;50.734;7.086;2023-01-26T05:39:59;-0.08;91.19
68801;SHT31;55784;50.734;7.086;2023-01-26T05:42:25;-0.09;91.23
68801;SHT31;55784;50.734;7.086;2023-01-26T05:44:50;-0.28;91.42
68801;SHT31;55784;50.734;7.086;2023-01-26T05:47:16;-0.32;92.00
68801;SHT31;55784;50.734;7.086;2023-01-26T05:49:42;-0.40;92.34
68801;SHT31;55784;50.734;7.086;2023-01-26T05:52:08;-0.57;92.47
68801;SHT31;55784;50.734;7.086;2023-01-26T05:54:34;-0.56;93.23
68801;SHT31;55784;50.734;7.086;2023-01-26T05:57:00;-0.69;93.43
68801;SHT31;55784;50.734;7.086;2023-01-26T05:59:25;-0.76;93.71
68801;SHT31;55784;50.734;7.086;2023-01-26T06:01:51;-0.77;94.04
68801;SHT31;55784;50.734;7.086;2023-01-26T06:04:16;-0.77;94.12
68801;SHT31;55784;50.734;7.086;2023-01-26T06:06:41;-0.77;94.39
68801;SHT31;55784;50.734;7.086;2023-01-26T06:09:07;-0.83;94.27
68801;SHT31;55784;50.734;7.086;2023-01-26T06:11:32;-0.79;94.26
68801;SHT31;55784;50.734;7.086;2023-01-26T06:13:58;-0.74;94.29
68801;SHT31;55784;50.734;7.086;2023-01-26T06:16:23;-0.76;94.53
68801;SHT31;55784;50.734;7.086;2023-01-26T06:18:48;-0.79;94.81
68801;SHT31;55784;50.734;7.086;2023-01-26T06:21:14;-0.69;94.71
68801;SHT31;55784;50.734;7.086;2023-01-26T06:23:39;-0.77;94.55
68801;SHT31;55784;50.734;7.086;2023-01-26T06:26:05;-0.60;94.45
68801;SHT31;55784;50.734;7.086;2023-01-26T06:28:31;-0.54;94.58
68801;SHT31;55784;50.734;7.086;2023-01-26T06:31:01;-0.53;94.39
68801;SHT31;55784;50.734;7.086;2023-01-26T06:33:27;-0.67;94.18
68801;SHT31;55784;50.734;7.086;2023-01-26T06:35:52;-0.63;93.48
68801;SHT31;55784;50.734;7.086;2023-01-26T06:38:19;-0.70;93.77
68801;SHT31;55784;50.734;7.086;2023-01-26T06:40:44;-0.64;93.72
68801;SHT31;55784;50.734;7.086;2023-01-26T06:43:09;-0.69;93.69
68801;SHT31;55784;50.734;7.086;2023-01-26T06:45:35;-0.67;93.91
68801;SHT31;55784;50.734;7.086;2023-01-26T06:48:00;-0.67;93.95
68801;SHT31;55784;50.734;7.086;2023-01-26T06:50:33;-0.67;94.08
68801;SHT31;55784;50.734;7.086;2023-01-26T06:53:02;-0.79;94.43
68801;SHT31;55784;50.734;7.086;2023-01-26T06:55:36;-0.69;94.55
68801;SHT31;55784;50.734;7.086;2023-01-26T06:58:02;-0.62;94.47
68801;SHT31;55784;50.734;7.086;2023-01-26T07:00:31;-0.62;94.51
68801;SHT31;55784;50.734;7.086;2023-01-26T07:02:57;-0.64;94.72
68801;SHT31;55784;50.734;7.086;2023-01-26T07:05:22;-0.67;94.11
68801;SHT31;55784;50.734;7.086;2023-01-26T07:07:48;-0.57;94.46
68801;SHT31;55784;50.734;7.086;2023-01-26T07:10:13;-0.57;93.96
68801;SHT31;55784;50.734;7.086;2023-01-26T07:12:42;-0.64;94.19
68801;SHT31;55784;50.734;7.086;2023-01-26T07:15:09;-0.62;94.54
68801;SHT31;55784;50.734;7.086;2023-01-26T07:17:36;-0.62;94.61
68801;SHT31;55784;50.734;7.086;2023-01-26T07:20:05;-0.62;94.25
68801;SHT31;55784;50.734;7.086;2023-01-26T07:22:30;-0.72;94.86
68801;SHT31;55784;50.734;7.086;2023-01-26T07:24:55;-0.70;94.97
68801;SHT31;55784;50.734;7.086;2023-01-26T07:27:21;-0.59;94.58
68801;SHT31;55784;50.734;7.086;2023-01-26T07:29:46;-0.60;94.87
68801;SHT31;55784;50.734;7.086;2023-01-26T07:32:12;-0.63;95.16
68801;SHT31;55784;50.734;7.086;2023-01-26T07:34:37;-0.56;94.85
68801;SHT31;55784;50.734;7.086;2023-01-26T07:37:03;-0.64;94.99
68801;SHT31;55784;50.734;7.086;2023-01-26T07:39:29;-0.54;95.24
68801;SHT31;55784;50.734;7.086;2023-01-26T07:41:55;-0.50;95.26
68801;SHT31;55784;50.734;7.086;2023-01-26T07:44:20;-0.54;94.78
68801;SHT31;55784;50.734;7.086;2023-01-26T07:46:46;-0.69;94.97
68801;SHT31;55784;50.734;7.086;2023-01-26T07:49:11;-0.67;95.55
68801;SHT31;55784;50.734;7.086;2023-01-26T07:51:37;-0.63;95.65
68801;SHT31;55784;50.734;7.086;2023-01-26T07:54:04;-0.50;95.93
68801;SHT31;55784;50.734;7.086;2023-01-26T07:56:29;-0.44;95.84
68801;SHT31;55784;50.734;7.086;2023-01-26T07:58:55;-0.44;95.68
68801;SHT31;55784;50.734;7.086;2023-01-26T08:01:21;-0.46;95.08
68801;SHT31;55784;50.734;7.086;2023-01-26T08:03:49;-0.35;95.76
68801;SHT31;55784;50.734;7.086;2023-01-26T08:06:14;-0.32;95.56
68801;SHT31;55784;50.734;7.086;2023-01-26T08:08:41;-0.33;95.76
68801;SHT31;55784;50.734;7.086;2023-01-26T08:11:07;-0.21;95.38
68801;SHT31;55784;50.734;7.086;2023-01-26T08:13:33;-0.21;94.67
68801;SHT31;55784;50.734;7.086;2023-01-26T08:16:06;-0.25;94.59
68801;SHT31;55784;50.734;7.086;2023-01-26T08:18:35;-0.25;93.91
68801;SHT31;55784;50.734;7.086;2023-01-26T08:21:00;-0.08;94.05
68801;SHT31;55784;50.734;7.086;2023-01-26T08:23:26;0.10;93.35
68801;SHT31;55784;50.734;7.086;2023-01-26T08:25:51;0.13;92.65
68801;SHT31;55784;50.734;7.086;2023-01-26T08:28:17;0.30;92.62
68801;SHT31;55784;50.734;7.086;2023-01-26T08:30:42;0.46;92.41
68801;SHT31;55784;50.734;7.086;2023-01-26T08:33:07;0.64;92.07
68801;SHT31;55784;50.734;7.086;2023-01-26T08:35:33;0.69;90.83
68801;SHT31;55784;50.734;7.086;2023-01-26T08:37:59;0.90;90.55
68801;SHT31;55784;50.734;7.086;2023-01-26T08:40:25;0.71;90.37
68801;SHT31;55784;50.734;7.086;2023-01-26T08:42:51;0.59;90.26
68801;SHT31;55784;50.734;7.086;2023-01-26T08:45:17;0.53;90.98
68801;SHT31;55784;50.734;7.086;2023-01-26T08:47:42;0.64;90.49
68801;SHT31;55784;50.734;7.086;2023-01-26T08:50:10;0.45;90.71
68801;SHT31;55784;50.734;7.086;2023-01-26T08:52:35;0.40;90.79
68801;SHT31;55784;50.734;7.086;2023-01-26T08:55:01;0.40;91.07
68801;SHT31;55784;50.734;7.086;2023-01-26T08:57:27;0.56;90.98
68801;SHT31;55784;50.734;7.086;2023-01-26T09:00:22;0.49;91.04
68801;SHT31;55784;50.734;7.086;2023-01-26T09:03:08;0.43;91.35
68801;SHT31;55784;50.734;7.086;2023-01-26T09:05:35;0.50;90.74
68801;SHT31;55784;50.734;7.086;2023-01-26T09:08:02;0.36;90.48
68801;SHT31;55784;50.734;7.086;2023-01-26T09:10:28;0.48;90.74
68801;SHT31;55784;50.734;7.086;2023-01-26T09:12:55;0.33;90.46
68801;SHT31;55784;50.734;7.086;2023-01-26T09:15:21;0.30;90.91
68801;SHT31;55784;50.734;7.086;2023-01-26T09:17:50;0.28;91.17
68801;SHT31;55784;50.734;7.086;2023-01-26T09:20:16;0.25;91.56
68801;SHT31;55784;50.734;7.086;2023-01-26T09:22:41;0.19;91.85
68801;SHT31;55784;50.734;7.086;2023-01-26T09:25:07;0.39;91.65
68801;SHT31;55784;50.734;7.086;2023-01-26T09:27:33;0.54;91.19
68801;SHT31;55784;50.734;7.086;2023-01-26T09:29:58;0.63;90.47
68801;SHT31;55784;50.734;7.086;2023-01-26T09:32:24;0.54;90.08
68801;SHT31;55784;50.734;7.086;2023-01-26T09:34:49;0.49;90.39
68801;SHT31;55784;50.734;7.086;2023-01-26T09:37:15;0.48;90.47
68801;SHT31;55784;50.734;7.086;2023-01-26T09:39:42;0.46;90.82
68801;SHT31;55784;50.734;7.086;2023-01-26T09:43:03;0.42;90.20
68801;SHT31;55784;50.734;7.086;2023-01-26T09:50:23;0.49;89.82
68801;SHT31;55784;50.734;7.086;2023-01-26T09:52:54;0.57;90.01
68801;SHT31;55784;50.734;7.086;2023-01-26T09:55:22;0.67;89.70
68801;SHT31;55784;50.734;7.086;2023-01-26T10:00:34;0.76;89.44
68801;SHT31;55784;50.734;7.086;2023-01-26T10:06:23;0.59;89.92
68801;SHT31;55784;50.734;7.086;2023-01-26T10:08:51;0.74;89.76
68801;SHT31;55784;50.734;7.086;2023-01-26T10:11:23;0.90;89.51
68801;SHT31;55784;50.734;7.086;2023-01-26T10:13:55;0.91;88.66
68801;SHT31;55784;50.734;7.086;2023-01-26T10:16:21;0.74;89.12
68801;SHT31;55784;50.734;7.086;2023-01-26T10:18:53;0.84;89.13
68801;SHT31;55784;50.734;7.086;2023-01-26T10:21:23;1.04;88.59
68801;SHT31;55784;50.734;7.086;2023-01-26T10:23:52;0.90;88.76
68801;SHT31;55784;50.734;7.086;2023-01-26T10:26:37;1.09;89.32
68801;SHT31;55784;50.734;7.086;2023-01-26T10:29:03;1.04;88.72
68801;SHT31;55784;50.734;7.086;2023-01-26T10:31:39;1.20;87.87
68801;SHT31;55784;50.734;7.086;2023-01-26T10:34:25;1.32;87.84
68801;SHT31;55784;50.734;7.086;2023-01-26T10:36:57;1.09;88.38
68801;SHT31;55784;50.734;7.086;2023-01-26T10:39:26;1.01;89.02
68801;SHT31;55784;50.734;7.086;2023-01-26T10:41:59;1.17;88.97
68801;SHT31;55784;50.734;7.086;2023-01-26T10:44:32;1.09;88.74
68801;SHT31;55784;50.734;7.086;2023-01-26T10:49:28;1.03;89.49
68801;SHT31;55784;50.734;7.086;2023-01-26T10:54:42;1.17;89.68
68801;SHT31;55784;50.734;7.086;2023-01-26T10:57:27;1.28;89.63
68801;SHT31;55784;50.734;7.086;2023-01-26T10:59:56;1.46;89.35
68801;SHT31;55784;50.734;7.086;2023-01-26T11:02:27;1.59;89.30
68801;SHT31;55784;50.734;7.086;2023-01-26T11:07:39;1.17;90.50
68801;SHT31;55784;50.734;7.086;2023-01-26T11:10:35;1.09;92.05
68801;SHT31;55784;50.734;7.086;2023-01-26T11:13:20;1.07;92.11
68801;SHT31;55784;50.734;7.086;2023-01-26T11:16:13;1.08;92.70
68801;SHT31;55784;50.734;7.086;2023-01-26T11:18:58;1.34;92.85
68801;SHT31;55784;50.734;7.086;2023-01-26T11:21:29;1.30;92.08
68801;SHT31;55784;50.734;7.086;2023-01-26T11:24:02;1.30;91.89
68801;SHT31;55784;50.734;7.086;2023-01-26T11:26:49;1.38;91.79
68801;SHT31;55784;50.734;7.086;2023-01-26T11:37:38;1.36;91.21
68801;SHT31;55784;50.734;7.086;2023-01-26T11:40:15;1.32;91.82
68801;SHT31;55784;50.734;7.086;2023-01-26T11:46:03;1.56;91.74
68801;SHT31;55784;50.734;7.086;2023-01-26T11:48:54;1.51;91.21
68801;SHT31;55784;50.734;7.086;2023-01-26T11:51:41;1.66;90.96
68801;SHT31;55784;50.734;7.086;2023-01-26T11:57:03;1.35;91.62
68801;SHT31;55784;50.734;7.086;2023-01-26T11:59:34;1.45;91.75
68801;SHT31;55784;50.734;7.086;2023-01-26T12:02:23;1.39;91.26
68801;SHT31;55784;50.734;7.086;2023-01-26T12:04:52;1.45;91.38
68801;SHT31;55784;50.734;7.086;2023-01-26T12:09:53;1.49;91.49
68801;SHT31;55784;50.734;7.086;2023-01-26T12:15:03;1.54;91.70
68801;SHT31;55784;50.734;7.086;2023-01-26T12:18:03;1.52;91.46
68801;SHT31;55784;50.734;7.086;2023-01-26T12:20:50;1.46;91.67
68801;SHT31;55784;50.734;7.086;2023-01-26T12:25:50;1.48;91.94
68801;SHT31;55784;50.734;7.086;2023-01-26T12:31:20;1.45;92.05
68801;SHT31;55784;50.734;7.086;2023-01-26T12:33:50;1.49;92.49
68801;SHT31;55784;50.734;7.086;2023-01-26T12:36:52;1.34;92.35
68801;SHT31;55784;50.734;7.086;2023-01-26T12:39:43;1.36;92.26
68801;SHT31;55784;50.734;7.086;2023-01-26T12:45:26;1.49;91.87
68801;SHT31;55784;50.734;7.086;2023-01-26T12:48:06;1.39;92.36
68801;SHT31;55784;50.734;7.086;2023-01-26T12:50:44;1.44;92.49
68801;SHT31;55784;50.734;7.086;2023-01-26T12:53:25;1.34;92.82
68801;SHT31;55784;50.734;7.086;2023-01-26T12:58:33;1.35;92.76
68801;SHT31;55784;50.734;7.086;2023-01-26T13:01:05;1.41;93.01
68801;SHT31;55784;50.734;7.086;2023-01-26T13:03:35;1.34;93.57
68801;SHT31;55784;50.734;7.086;2023-01-26T13:11:04;1.34;94.66
68801;SHT31;55784;50.734;7.086;2023-01-26T13:13:32;1.32;94.44
68801;SHT31;55784;50.734;7.086;2023-01-26T13:18:55;1.46;94.66
68801;SHT31;55784;50.734;7.086;2023-01-26T13:24:01;1.44;93.67
68801;SHT31;55784;50.734;7.086;2023-01-26T13:34:38;1.24;94.35
68801;SHT31;55784;50.734;7.086;2023-01-26T13:37:11;1.20;94.67
68801;SHT31;55784;50.734;7.086;2023-01-26T13:39:41;1.27;94.78
68801;SHT31;55784;50.734;7.086;2023-01-26T13:42:16;1.32;94.61
68801;SHT31;55784;50.734;7.086;2023-01-26T13:44:56;1.31;94.89
68801;SHT31;55784;50.734;7.086;2023-01-26T13:47:44;1.32;94.93
68801;SHT31;55784;50.734;7.086;2023-01-26T13:50:31;1.30;95.57
68801;SHT31;55784;50.734;7.086;2023-01-26T13:52:57;1.35;95.35
68801;SHT31;55784;50.734;7.086;2023-01-26T13:55:29;1.35;95.49
68801;SHT31;55784;50.734;7.086;2023-01-26T13:58:15;1.38;95.45
68801;SHT31;55784;50.734;7.086;2023-01-26T14:00:41;1.35;95.60
68801;SHT31;55784;50.734;7.086;2023-01-26T14:03:20;1.35;95.58
68801;SHT31;55784;50.734;7.086;2023-01-26T14:05:56;1.34;95.32
68801;SHT31;55784;50.734;7.086;2023-01-26T14:08:22;1.42;95.41
68801;SHT31;55784;50.734;7.086;2023-01-26T14:10:48;1.38;94.94
68801;SHT31;55784;50.734;7.086;2023-01-26T14:13:22;1.34;95.29
68801;SHT31;55784;50.734;7.086;2023-01-26T14:15:56;1.30;95.37
68801;SHT31;55784;50.734;7.086;2023-01-26T14:18:22;1.34;95.21
68801;SHT31;55784;50.734;7.086;2023-01-26T14:20:48;1.42;94.81
68801;SHT31;55784;50.734;7.086;2023-01-26T14:23:15;1.39;94.73
68801;SHT31;55784;50.734;7.086;2023-01-26T14:26:19;1.42;95.14
68801;SHT31;55784;50.734;7.086;2023-01-26T14:28:45;1.42;95.25
68801;SHT31;55784;50.734;7.086;2023-01-26T14:31:24;1.41;95.28
68801;SHT31;55784;50.734;7.086;2023-01-26T14:33:52;1.41;95.18
68801;SHT31;55784;50.734;7.086;2023-01-26T14:36:22;1.36;95.60
68801;SHT31;55784;50.734;7.086;2023-01-26T14:38:49;1.36;95.56
68801;SHT31;55784;50.734;7.086;2023-01-26T14:41:25;1.38;95.59
68801;SHT31;55784;50.734;7.086;2023-01-26T14:43:53;1.45;95.40
68801;SHT31;55784;50.734;7.086;2023-01-26T14:49:17;1.36;95.91
68801;SHT31;55784;50.734;7.086;2023-01-26T14:51:45;1.38;95.76
68801;SHT31;55784;50.734;7.086;2023-01-26T14:54:24;1.42;96.35
68801;SHT31;55784;50.734;7.086;2023-01-26T14:56:52;1.42;96.29
68801;SHT31;55784;50.734;7.086;2023-01-26T14:59:21;1.35;96.48
68801;SHT31;55784;50.734;7.086;2023-01-26T15:01:47;1.27;96.67
68801;SHT31;55784;50.734;7.086;2023-01-26T15:04:27;1.36;96.41
68801;SHT31;55784;50.734;7.086;2023-01-26T15:06:55;1.42;96.43
68801;SHT31;55784;50.734;7.086;2023-01-26T15:09:26;1.44;96.28
68801;SHT31;55784;50.734;7.086;2023-01-26T15:11:56;1.41;96.47
68801;SHT31;55784;50.734;7.086;2023-01-26T15:17:39;1.48;96.45
68801;SHT31;55784;50.734;7.086;2023-01-26T15:22:39;1.49;96.43
68801;SHT31;55784;50.734;7.086;2023-01-26T15:27:52;1.52;96.53
68801;SHT31;55784;50.734;7.086;2023-01-26T15:30:24;1.59;96.30
68801;SHT31;55784;50.734;7.086;2023-01-26T15:32:50;1.52;96.50
68801;SHT31;55784;50.734;7.086;2023-01-26T15:35:25;1.56;96.60
68801;SHT31;55784;50.734;7.086;2023-01-26T15:38:08;1.49;96.73
68801;SHT31;55784;50.734;7.086;2023-01-26T15:40:34;1.52;96.67
68801;SHT31;55784;50.734;7.086;2023-01-26T15:43:16;1.52;96.73
68801;SHT31;55784;50.734;7.086;2023-01-26T15:45:53;1.51;96.63
68801;SHT31;55784;50.734;7.086;2023-01-26T15:48:19;1.55;96.66
68801;SHT31;55784;50.734;7.086;2023-01-26T15:50:45;1.51;96.92
68801;SHT31;55784;50.734;7.086;2023-01-26T15:53:17;1.59;96.85
68801;SHT31;55784;50.734;7.086;2023-01-26T15:55:44;1.56;96.87
68801;SHT31;55784;50.734;7.086;2023-01-26T15:58:10;1.58;97.02
68801;SHT31;55784;50.734;7.086;2023-01-26T16:00:36;1.55;97.16
68801;SHT31;55784;50.734;7.086;2023-01-26T16:03:06;1.60;97.12
68801;SHT31;55784;50.734;7.086;2023-01-26T16:05:33;1.63;97.18
68801;SHT31;55784;50.734;7.086;2023-01-26T16:07:59;1.58;97.14
68801;SHT31;55784;50.734;7.086;2023-01-26T16:10:24;1.65;97.17
68801;SHT31;55784;50.734;7.086;2023-01-26T16:12:49;1.60;97.23
68801;SHT31;55784;50.734;7.086;2023-01-26T16:17:49;1.54;97.34
68801;SHT31;55784;50.734;7.086;2023-01-26T16:20:15;1.63;97.09
68801;SHT31;55784;50.734;7.086;2023-01-26T16:22:41;1.65;97.05
68801;SHT31;55784;50.734;7.086;2023-01-26T16:25:18;1.63;97.01
68801;SHT31;55784;50.734;7.086;2023-01-26T16:27:44;1.65;97.23
68801;SHT31;55784;50.734;7.086;2023-01-26T16:30:10;1.63;97.13
68801;SHT31;55784;50.734;7.086;2023-01-26T16:32:35;1.67;97.38
68801;SHT31;55784;50.734;7.086;2023-01-26T16:35:00;1.70;97.49
68801;SHT31;55784;50.734;7.086;2023-01-26T16:37:26;1.65;97.65
68801;SHT31;55784;50.734;7.086;2023-01-26T16:39:51;1.69;97.82
68801;SHT31;55784;50.734;7.086;2023-01-26T16:42:17;1.75;97.80
68801;SHT31;55784;50.734;7.086;2023-01-26T16:44:44;1.70;97.87
68801;SHT31;55784;50.734;7.086;2023-01-26T16:47:10;1.70;98.12
68801;SHT31;55784;50.734;7.086;2023-01-26T16:49:35;1.75;98.23
68801;SHT31;55784;50.734;7.086;2023-01-26T16:52:00;1.79;98.23
68801;SHT31;55784;50.734;7.086;2023-01-26T16:54:26;1.83;98.38
68801;SHT31;55784;50.734;7.086;2023-01-26T16:56:51;1.82;98.57
68801;SHT31;55784;50.734;7.086;2023-01-26T16:59:17;1.86;98.56
68801;SHT31;55784;50.734;7.086;2023-01-26T17:01:42;1.86;98.74
68801;SHT31;55784;50.734;7.086;2023-01-26T17:04:08;1.86;98.76
68801;SHT31;55784;50.734;7.086;2023-01-26T17:06:34;1.89;98.94
68801;SHT31;55784;50.734;7.086;2023-01-26T17:08:59;1.92;98.93
68801;SHT31;55784;50.734;7.086;2023-01-26T17:11:26;1.90;98.98
68801;SHT31;55784;50.734;7.086;2023-01-26T17:13:52;1.90;99.31
68801;SHT31;55784;50.734;7.086;2023-01-26T17:16:22;1.93;99.17
68801;SHT31;55784;50.734;7.086;2023-01-26T17:18:50;1.95;99.17
68801;SHT31;55784;50.734;7.086;2023-01-26T17:21:17;2.00;99.24